sensor_id;sensor_type;location;lat;lon;timestamp;pressure;altitude;pressure_sealevel;temperature;humidity
72548;BME280;60570;50.848;6.776;2023-03-21T00:00:28;100696.19;;;11.71;64.30
72548;BME280;60570;50.848;6.776;2023-03-21T00:01:29;100686.69;;;11.72;64.24
72548;BME280;60570;50.848;6.776;2023-03-21T00:02:30;100689.00;;;11.70;64.19
72548;BME280;60570;50.848;6.776;2023-03-21T00:03:32;100685.41;;;11.69;64.12
72548;BME280;60570;50.848;6.776;2023-03-21T00:04:34;100690.63;;;11.71;64.42
72548;BME280;60570;50.848;6.776;2023-03-21T00:05:40;100683.44;;;11.70;64.32
72548;BME280;60570;50.848;6.776;2023-03-21T00:06:41;100680.66;;;11.70;63.99
72548;BME280;60570;50.848;6.776;2023-03-21T00:07:42;100681.47;;;11.70;64.28
72548;BME280;60570;50.848;6.776;2023-03-21T00:08:43;100689.81;;;11.70;64.12
72548;BME280;60570;50.848;6.776;2023-03-21T00:09:44;100677.53;;;11.72;64.26
72548;BME280;60570;50.848;6.776;2023-03-21T00:10:44;100678.69;;;11.70;63.88
72548;BME280;60570;50.848;6.776;2023-03-21T00:11:45;100675.06;;;11.70;64.21
72548;BME280;60570;50.848;6.776;2023-03-21T00:12:46;100677.06;;;11.69;64.09
72548;BME280;60570;50.848;6.776;2023-03-21T00:13:49;100675.91;;;11.70;64.27
72548;BME280;60570;50.848;6.776;2023-03-21T00:14:49;100669.50;;;11.70;63.96
72548;BME280;60570;50.848;6.776;2023-03-21T00:15:53;100676.72;;;11.71;64.06
72548;BME280;60570;50.848;6.776;2023-03-21T00:16:53;100669.50;;;11.70;64.21
72548;BME280;60570;50.848;6.776;2023-03-21T00:17:55;100671.50;;;11.69;64.14
72548;BME280;60570;50.848;6.776;2023-03-21T00:19:10;100664.78;;;11.70;63.99
72548;BME280;60570;50.848;6.776;2023-03-21T00:20:11;100667.56;;;11.70;64.23
72548;BME280;60570;50.848;6.776;2023-03-21T00:21:16;100662.81;;;11.71;63.91
72548;BME280;60570;50.848;6.776;2023-03-21T00:22:16;100667.22;;;11.72;64.43
72548;BME280;60570;50.848;6.776;2023-03-21T00:23:17;100665.59;;;11.71;63.95
72548;BME280;60570;50.848;6.776;2023-03-21T00:24:17;100663.63;;;11.72;64.24
72548;BME280;60570;50.848;6.776;2023-03-21T00:25:18;100661.16;;;11.70;64.11
72548;BME280;60570;50.848;6.776;2023-03-21T00:26:19;100658.38;;;11.70;64.12
72548;BME280;60570;50.848;6.776;2023-03-21T00:27:21;100669.50;;;11.70;64.24
72548;BME280;60570;50.848;6.776;2023-03-21T00:28:23;100656.75;;;11.69;64.32
72548;BME280;60570;50.848;6.776;2023-03-21T00:29:23;100655.59;;;11.70;64.20
72548;BME280;60570;50.848;6.776;2023-03-21T00:30:24;100657.59;;;11.69;64.34
72548;BME280;60570;50.848;6.776;2023-03-21T00:31:24;100659.56;;;11.69;63.97
72548;BME280;60570;50.848;6.776;2023-03-21T00:32:25;100655.13;;;11.68;64.36
72548;BME280;60570;50.848;6.776;2023-03-21T00:33:26;100658.72;;;11.68;64.32
72548;BME280;60570;50.848;6.776;2023-03-21T00:34:26;100664.28;;;11.68;64.24
72548;BME280;60570;50.848;6.776;2023-03-21T00:35:27;100659.91;;;11.67;63.93
72548;BME280;60570;50.848;6.776;2023-03-21T00:36:27;100657.91;;;11.68;64.15
72548;BME280;60570;50.848;6.776;2023-03-21T00:37:28;100657.91;;;11.68;64.36
72548;BME280;60570;50.848;6.776;2023-03-21T00:38:28;100657.91;;;11.68;64.28
72548;BME280;60570;50.848;6.776;2023-03-21T00:39:29;100655.13;;;11.68;64.15
72548;BME280;60570;50.848;6.776;2023-03-21T00:40:29;100655.94;;;11.68;64.09
72548;BME280;60570;50.848;6.776;2023-03-21T00:41:30;100653.50;;;11.67;64.15
72548;BME280;60570;50.848;6.776;2023-03-21T00:42:30;100655.13;;;11.68;64.32
72548;BME280;60570;50.848;6.776;2023-03-21T00:43:31;100658.72;;;11.68;64.25
72548;BME280;60570;50.848;6.776;2023-03-21T00:44:32;100650.72;;;11.67;64.10
72548;BME280;60570;50.848;6.776;2023-03-21T00:45:36;100655.13;;;11.68;64.23
72548;BME280;60570;50.848;6.776;2023-03-21T00:46:36;100650.72;;;11.67;64.16
72548;BME280;60570;50.848;6.776;2023-03-21T00:47:37;100647.94;;;11.67;64.39
72548;BME280;60570;50.848;6.776;2023-03-21T00:48:37;100646.78;;;11.68;64.28
72548;BME280;60570;50.848;6.776;2023-03-21T00:49:38;100648.75;;;11.67;64.06
72548;BME280;60570;50.848;6.776;2023-03-21T00:50:39;100638.78;;;11.66;64.19
72548;BME280;60570;50.848;6.776;2023-03-21T00:51:40;100647.13;;;11.66;64.09
72548;BME280;60570;50.848;6.776;2023-03-21T00:52:43;100641.56;;;11.66;64.07
72548;BME280;60570;50.848;6.776;2023-03-21T00:53:43;100640.41;;;11.67;64.41
72548;BME280;60570;50.848;6.776;2023-03-21T00:54:44;100641.22;;;11.68;63.94
72548;BME280;60570;50.848;6.776;2023-03-21T00:55:45;100641.22;;;11.68;64.13
72548;BME280;60570;50.848;6.776;2023-03-21T00:56:46;100639.59;;;11.67;64.02
72548;BME280;60570;50.848;6.776;2023-03-21T00:57:46;100642.38;;;11.67;64.21
72548;BME280;60570;50.848;6.776;2023-03-21T00:58:47;100636.00;;;11.66;64.11
72548;BME280;60570;50.848;6.776;2023-03-21T00:59:47;100636.81;;;11.67;64.33
72548;BME280;60570;50.848;6.776;2023-03-21T01:00:48;100636.00;;;11.66;64.14
72548;BME280;60570;50.848;6.776;2023-03-21T01:01:48;100642.38;;;11.67;64.16
72548;BME280;60570;50.848;6.776;2023-03-21T01:02:49;100639.59;;;11.67;64.23
72548;BME280;60570;50.848;6.776;2023-03-21T01:04:04;100632.38;;;11.66;63.98
72548;BME280;60570;50.848;6.776;2023-03-21T01:05:09;100633.53;;;11.65;64.31
72548;BME280;60570;50.848;6.776;2023-03-21T01:06:10;100638.78;;;11.66;64.35
72548;BME280;60570;50.848;6.776;2023-03-21T01:07:12;100635.47;;;11.64;63.97
72548;BME280;60570;50.848;6.776;2023-03-21T01:08:15;100635.47;;;11.64;63.95
72548;BME280;60570;50.848;6.776;2023-03-21T01:09:18;100641.56;;;11.66;64.27
72548;BME280;60570;50.848;6.776;2023-03-21T01:10:19;100627.97;;;11.65;64.37
72548;BME280;60570;50.848;6.776;2023-03-21T01:11:23;100627.97;;;11.65;64.39
72548;BME280;60570;50.848;6.776;2023-03-21T01:12:24;100626.03;;;11.65;64.21
72548;BME280;60570;50.848;6.776;2023-03-21T01:13:25;100630.75;;;11.65;64.29
72548;BME280;60570;50.848;6.776;2023-03-21T01:14:25;100632.69;;;11.64;64.30
72548;BME280;60570;50.848;6.776;2023-03-21T01:15:25;100637.16;;;11.65;64.39
72548;BME280;60570;50.848;6.776;2023-03-21T01:16:26;100629.91;;;11.64;64.13
72548;BME280;60570;50.848;6.776;2023-03-21T01:17:26;100637.94;;;11.66;64.13
72548;BME280;60570;50.848;6.776;2023-03-21T01:18:28;100624.34;;;11.64;64.37
72548;BME280;60570;50.848;6.776;2023-03-21T01:19:29;100631.88;;;11.64;63.96
72548;BME280;60570;50.848;6.776;2023-03-21T01:20:29;100629.09;;;11.64;64.25
72548;BME280;60570;50.848;6.776;2023-03-21T01:21:30;100626.31;;;11.64;64.51
72548;BME280;60570;50.848;6.776;2023-03-21T01:22:31;100625.19;;;11.65;64.34
72548;BME280;60570;50.848;6.776;2023-03-21T01:23:32;100624.84;;;11.66;64.33
72548;BME280;60570;50.848;6.776;2023-03-21T01:24:33;100624.34;;;11.64;64.25
72548;BME280;60570;50.848;6.776;2023-03-21T01:25:33;100627.13;;;11.64;64.13
72548;BME280;60570;50.848;6.776;2023-03-21T01:26:34;100629.91;;;11.64;64.36
72548;BME280;60570;50.848;6.776;2023-03-21T01:27:36;100619.59;;;11.65;64.31
72548;BME280;60570;50.848;6.776;2023-03-21T01:28:38;100625.53;;;11.63;64.23
72548;BME280;60570;50.848;6.776;2023-03-21T01:29:38;100624.03;;;11.66;64.33
72548;BME280;60570;50.848;6.776;2023-03-21T01:30:44;100619.28;;;11.66;64.21
72548;BME280;60570;50.848;6.776;2023-03-21T01:31:45;100625.19;;;11.65;64.14
72548;BME280;60570;50.848;6.776;2023-03-21T01:32:45;100621.91;;;11.63;64.13
72548;BME280;60570;50.848;6.776;2023-03-21T01:33:46;100621.56;;;11.64;64.24
72548;BME280;60570;50.848;6.776;2023-03-21T01:34:47;100625.19;;;11.65;64.16
72548;BME280;60570;50.848;6.776;2023-03-21T01:35:48;100617.97;;;11.64;64.46
72548;BME280;60570;50.848;6.776;2023-03-21T01:36:48;100613.22;;;11.64;64.05
72548;BME280;60570;50.848;6.776;2023-03-21T01:37:49;100621.56;;;11.64;64.31
72548;BME280;60570;50.848;6.776;2023-03-21T01:38:50;100620.75;;;11.64;64.20
72548;BME280;60570;50.848;6.776;2023-03-21T01:39:51;100615.19;;;11.64;64.28
72548;BME280;60570;50.848;6.776;2023-03-21T01:40:52;100620.75;;;11.64;64.43
72548;BME280;60570;50.848;6.776;2023-03-21T01:41:53;100616.00;;;11.64;64.47
72548;BME280;60570;50.848;6.776;2023-03-21T01:42:53;100619.13;;;11.63;64.34
72548;BME280;60570;50.848;6.776;2023-03-21T01:43:54;100622.75;;;11.63;64.27
72548;BME280;60570;50.848;6.776;2023-03-21T01:44:58;100615.53;;;11.62;64.27
72548;BME280;60570;50.848;6.776;2023-03-21T01:46:27;100609.97;;;11.62;64.24
72548;BME280;60570;50.848;6.776;2023-03-21T01:47:28;100606.34;;;11.62;64.53
72548;BME280;60570;50.848;6.776;2023-03-21T01:48:28;100609.97;;;11.62;64.45
72548;BME280;60570;50.848;6.776;2023-03-21T01:49:37;100609.97;;;11.62;64.31
72548;BME280;60570;50.848;6.776;2023-03-21T01:50:39;100607.19;;;11.62;64.12
72548;BME280;60570;50.848;6.776;2023-03-21T01:51:44;100609.97;;;11.62;64.52
72548;BME280;60570;50.848;6.776;2023-03-21T01:52:45;100608.00;;;11.63;64.29
72548;BME280;60570;50.848;6.776;2023-03-21T01:53:49;100609.63;;;11.64;64.41
72548;BME280;60570;50.848;6.776;2023-03-21T01:54:51;100603.25;;;11.63;64.33
72548;BME280;60570;50.848;6.776;2023-03-21T01:55:53;100601.63;;;11.62;64.27
72548;BME280;60570;50.848;6.776;2023-03-21T01:56:57;100600.47;;;11.63;64.10
72548;BME280;60570;50.848;6.776;2023-03-21T01:57:59;100595.22;;;11.62;64.08
72548;BME280;60570;50.848;6.776;2023-03-21T01:59:10;100596.06;;;11.62;64.23
72548;BME280;60570;50.848;6.776;2023-03-21T02:00:12;100595.22;;;11.62;64.26
72548;BME280;60570;50.848;6.776;2023-03-21T02:01:13;100595.22;;;11.62;64.49
72548;BME280;60570;50.848;6.776;2023-03-21T02:02:25;100591.31;;;11.63;64.16
72548;BME280;60570;50.848;6.776;2023-03-21T02:03:28;100591.66;;;11.61;64.34
72548;BME280;60570;50.848;6.776;2023-03-21T02:04:38;100591.66;;;11.61;64.43
72548;BME280;60570;50.848;6.776;2023-03-21T02:06:50;100584.44;;;11.60;64.42
72548;BME280;60570;50.848;6.776;2023-03-21T02:07:52;100589.66;;;11.62;64.44
72548;BME280;60570;50.848;6.776;2023-03-21T02:08:53;100585.28;;;11.61;64.30
72548;BME280;60570;50.848;6.776;2023-03-21T02:09:54;100580.84;;;11.60;64.33
72548;BME280;60570;50.848;6.776;2023-03-21T02:10:55;100574.50;;;11.59;64.18
72548;BME280;60570;50.848;6.776;2023-03-21T02:11:56;100581.66;;;11.60;64.46
72548;BME280;60570;50.848;6.776;2023-03-21T02:12:59;100580.06;;;11.59;64.57
72548;BME280;60570;50.848;6.776;2023-03-21T02:14:12;100573.31;;;11.60;64.63
72548;BME280;60570;50.848;6.776;2023-03-21T02:15:14;100576.09;;;11.60;64.56
72548;BME280;60570;50.848;6.776;2023-03-21T02:16:26;100580.53;;;11.61;64.15
72548;BME280;60570;50.848;6.776;2023-03-21T02:20:46;100574.13;;;11.61;64.15
72548;BME280;60570;50.848;6.776;2023-03-21T02:22:33;100567.41;;;11.62;64.44
72548;BME280;60570;50.848;6.776;2023-03-21T02:27:14;100559.41;;;11.60;64.17
72548;BME280;60570;50.848;6.776;2023-03-21T02:28:32;100560.22;;;11.61;64.30
72548;BME280;60570;50.848;6.776;2023-03-21T02:33:39;100555.47;;;11.61;64.38
72548;BME280;60570;50.848;6.776;2023-03-21T02:37:04;100555.47;;;11.61;64.24
72548;BME280;60570;50.848;6.776;2023-03-21T02:38:09;100551.88;;;11.61;64.29
72548;BME280;60570;50.848;6.776;2023-03-21T02:39:25;100555.00;;;11.59;64.21
72548;BME280;60570;50.848;6.776;2023-03-21T02:40:32;100556.63;;;11.60;64.04
72548;BME280;60570;50.848;6.776;2023-03-21T02:41:46;100553.03;;;11.60;64.23
72548;BME280;60570;50.848;6.776;2023-03-21T02:42:54;100548.63;;;11.59;64.58
72548;BME280;60570;50.848;6.776;2023-03-21T02:46:21;100547.00;;;11.58;64.38
72548;BME280;60570;50.848;6.776;2023-03-21T02:48:31;100550.59;;;11.58;64.15
72548;BME280;60570;50.848;6.776;2023-03-21T02:50:59;100551.41;;;11.59;64.47
72548;BME280;60570;50.848;6.776;2023-03-21T02:52:02;100547.00;;;11.58;64.26
72548;BME280;60570;50.848;6.776;2023-03-21T02:53:09;100553.38;;;11.58;64.69
72548;BME280;60570;50.848;6.776;2023-03-21T02:54:14;100547.00;;;11.58;64.35
72548;BME280;60570;50.848;6.776;2023-03-21T02:55:21;100545.03;;;11.58;64.41
72548;BME280;60570;50.848;6.776;2023-03-21T02:56:23;100549.78;;;11.58;64.35
72548;BME280;60570;50.848;6.776;2023-03-21T02:57:25;100547.81;;;11.58;64.48
72548;BME280;60570;50.848;6.776;2023-03-21T02:58:27;100550.59;;;11.58;64.60
72548;BME280;60570;50.848;6.776;2023-03-21T02:59:28;100547.81;;;11.58;64.36
72548;BME280;60570;50.848;6.776;2023-03-21T03:00:31;100546.19;;;11.57;64.36
72548;BME280;60570;50.848;6.776;2023-03-21T03:01:32;100547.81;;;11.58;64.26
72548;BME280;60570;50.848;6.776;2023-03-21T03:02:33;100545.03;;;11.58;64.52
72548;BME280;60570;50.848;6.776;2023-03-21T03:03:34;100546.66;;;11.59;64.66
72548;BME280;60570;50.848;6.776;2023-03-21T03:04:38;100536.69;;;11.58;64.31
72548;BME280;60570;50.848;6.776;2023-03-21T03:05:57;100545.03;;;11.58;64.39
72548;BME280;60570;50.848;6.776;2023-03-21T03:07:21;100543.88;;;11.59;64.31
72548;BME280;60570;50.848;6.776;2023-03-21T03:13:37;100538.97;;;11.56;64.33
72548;BME280;60570;50.848;6.776;2023-03-21T03:14:55;100539.81;;;11.57;64.73
72548;BME280;60570;50.848;6.776;2023-03-21T03:16:47;100536.19;;;11.56;64.43
72548;BME280;60570;50.848;6.776;2023-03-21T03:19:51;100532.28;;;11.57;64.62
72548;BME280;60570;50.848;6.776;2023-03-21T03:21:08;100525.06;;;11.56;64.50
72548;BME280;60570;50.848;6.776;2023-03-21T03:22:16;100518.72;;;11.56;64.48
72548;BME280;60570;50.848;6.776;2023-03-21T03:24:56;100519.50;;;11.56;64.44
72548;BME280;60570;50.848;6.776;2023-03-21T03:26:22;100527.84;;;11.56;64.60
72548;BME280;60570;50.848;6.776;2023-03-21T03:27:29;100525.41;;;11.55;64.67
72548;BME280;60570;50.848;6.776;2023-03-21T03:28:36;100519.84;;;11.55;64.53
72548;BME280;60570;50.848;6.776;2023-03-21T03:29:39;100526.25;;;11.55;64.28
72548;BME280;60570;50.848;6.776;2023-03-21T03:30:42;100520.69;;;11.55;64.63
72548;BME280;60570;50.848;6.776;2023-03-21T03:31:55;100517.91;;;11.55;64.62
72548;BME280;60570;50.848;6.776;2023-03-21T03:32:58;100517.06;;;11.55;64.55
72548;BME280;60570;50.848;6.776;2023-03-21T03:34:06;100515.13;;;11.55;64.50
72548;BME280;60570;50.848;6.776;2023-03-21T03:35:08;100517.06;;;11.55;64.51
72548;BME280;60570;50.848;6.776;2023-03-21T03:36:10;100514.28;;;11.55;64.60
72548;BME280;60570;50.848;6.776;2023-03-21T03:37:17;100508.25;;;11.53;64.70
72548;BME280;60570;50.848;6.776;2023-03-21T03:38:20;100516.59;;;11.53;64.44
72548;BME280;60570;50.848;6.776;2023-03-21T03:39:28;100515.78;;;11.52;64.47
72548;BME280;60570;50.848;6.776;2023-03-21T03:40:37;100510.22;;;11.52;64.77
72548;BME280;60570;50.848;6.776;2023-03-21T03:41:50;100518.56;;;11.52;64.48
72548;BME280;60570;50.848;6.776;2023-03-21T03:42:59;100507.44;;;11.52;64.54
72548;BME280;60570;50.848;6.776;2023-03-21T03:44:02;100512.69;;;11.54;64.81
72548;BME280;60570;50.848;6.776;2023-03-21T03:45:04;100514.63;;;11.53;64.36
72548;BME280;60570;50.848;6.776;2023-03-21T03:46:11;100508.25;;;11.53;64.37
72548;BME280;60570;50.848;6.776;2023-03-21T03:47:23;100503.50;;;11.53;64.50
72548;BME280;60570;50.848;6.776;2023-03-21T03:48:31;100506.28;;;11.53;64.71
72548;BME280;60570;50.848;6.776;2023-03-21T03:49:46;100505.13;;;11.54;64.36
72548;BME280;60570;50.848;6.776;2023-03-21T03:51:00;100501.56;;;11.54;64.84
72548;BME280;60570;50.848;6.776;2023-03-21T03:53:24;100496.78;;;11.54;64.53
72548;BME280;60570;50.848;6.776;2023-03-21T03:54:31;100496.00;;;11.54;64.55
72548;BME280;60570;50.848;6.776;2023-03-21T03:55:35;100491.56;;;11.53;64.52
72548;BME280;60570;50.848;6.776;2023-03-21T03:56:36;100499.91;;;11.53;64.31
72548;BME280;60570;50.848;6.776;2023-03-21T03:57:38;100499.91;;;11.53;64.76
72548;BME280;60570;50.848;6.776;2023-03-21T03:58:39;100494.34;;;11.53;64.46
72548;BME280;60570;50.848;6.776;2023-03-21T03:59:42;100498.28;;;11.52;64.73
72548;BME280;60570;50.848;6.776;2023-03-21T04:00:44;100501.41;;;11.50;64.79
72548;BME280;60570;50.848;6.776;2023-03-21T04:01:44;100500.25;;;11.51;64.57
72548;BME280;60570;50.848;6.776;2023-03-21T04:02:45;100503.03;;;11.51;64.58
72548;BME280;60570;50.848;6.776;2023-03-21T04:03:47;100500.25;;;11.51;64.44
72548;BME280;60570;50.848;6.776;2023-03-21T04:04:50;100505.81;;;11.51;64.53
72548;BME280;60570;50.848;6.776;2023-03-21T04:05:52;100501.09;;;11.52;64.61
72548;BME280;60570;50.848;6.776;2023-03-21T04:06:54;100501.88;;;11.52;64.64
72548;BME280;60570;50.848;6.776;2023-03-21T04:07:54;100502.69;;;11.53;64.35
72548;BME280;60570;50.848;6.776;2023-03-21T04:08:56;100498.78;;;11.54;64.65
72548;BME280;60570;50.848;6.776;2023-03-21T04:09:57;100501.88;;;11.52;64.68
72548;BME280;60570;50.848;6.776;2023-03-21T04:10:57;100503.50;;;11.53;64.78
72548;BME280;60570;50.848;6.776;2023-03-21T04:11:57;100494.34;;;11.53;64.52
72548;BME280;60570;50.848;6.776;2023-03-21T04:12:58;100496.78;;;11.54;64.47
72548;BME280;60570;50.848;6.776;2023-03-21T04:13:58;100502.34;;;11.54;64.39
72548;BME280;60570;50.848;6.776;2023-03-21T04:14:59;100507.13;;;11.54;64.57
72548;BME280;60570;50.848;6.776;2023-03-21T04:16:00;100502.69;;;11.53;64.39
72548;BME280;60570;50.848;6.776;2023-03-21T04:17:00;100499.09;;;11.52;64.55
72548;BME280;60570;50.848;6.776;2023-03-21T04:18:01;100497.94;;;11.53;64.61
72548;BME280;60570;50.848;6.776;2023-03-21T04:19:01;100501.09;;;11.52;64.53
72548;BME280;60570;50.848;6.776;2023-03-21T04:20:03;100499.09;;;11.52;64.39
72548;BME280;60570;50.848;6.776;2023-03-21T04:21:11;100500.25;;;11.51;64.76
72548;BME280;60570;50.848;6.776;2023-03-21T04:22:12;100492.72;;;11.52;64.87
72548;BME280;60570;50.848;6.776;2023-03-21T04:23:13;100491.91;;;11.51;64.37
72548;BME280;60570;50.848;6.776;2023-03-21T04:24:14;100500.72;;;11.53;64.80
72548;BME280;60570;50.848;6.776;2023-03-21T04:25:14;100505.00;;;11.51;64.69
72548;BME280;60570;50.848;6.776;2023-03-21T04:26:15;100503.88;;;11.52;64.34
72548;BME280;60570;50.848;6.776;2023-03-21T04:27:15;100498.78;;;11.54;64.75
72548;BME280;60570;50.848;6.776;2023-03-21T04:28:16;100501.56;;;11.54;64.66
72548;BME280;60570;50.848;6.776;2023-03-21T04:29:17;100500.38;;;11.55;64.60
72548;BME280;60570;50.848;6.776;2023-03-21T04:30:17;100494.34;;;11.53;64.57
72548;BME280;60570;50.848;6.776;2023-03-21T04:31:18;100495.16;;;11.53;64.45
72548;BME280;60570;50.848;6.776;2023-03-21T04:32:19;100492.72;;;11.52;64.24
72548;BME280;60570;50.848;6.776;2023-03-21T04:33:25;100494.69;;;11.51;64.86
72548;BME280;60570;50.848;6.776;2023-03-21T04:34:26;100494.69;;;11.51;64.29
72548;BME280;60570;50.848;6.776;2023-03-21T04:35:27;100489.13;;;11.51;64.64
72548;BME280;60570;50.848;6.776;2023-03-21T04:36:28;100493.53;;;11.52;64.53
72548;BME280;60570;50.848;6.776;2023-03-21T04:37:38;100498.28;;;11.52;64.51
72548;BME280;60570;50.848;6.776;2023-03-21T04:38:38;100491.09;;;11.51;64.57
72548;BME280;60570;50.848;6.776;2023-03-21T04:39:39;100500.25;;;11.51;64.82
72548;BME280;60570;50.848;6.776;2023-03-21T04:40:39;100491.91;;;11.51;64.62
72548;BME280;60570;50.848;6.776;2023-03-21T04:41:42;100491.91;;;11.51;64.79
72548;BME280;60570;50.848;6.776;2023-03-21T04:42:44;100489.94;;;11.52;64.45
72548;BME280;60570;50.848;6.776;2023-03-21T04:43:44;100484.72;;;11.50;64.29
72548;BME280;60570;50.848;6.776;2023-03-21T04:44:47;100491.91;;;11.51;64.48
72548;BME280;60570;50.848;6.776;2023-03-21T04:45:47;100491.09;;;11.51;64.62
72548;BME280;60570;50.848;6.776;2023-03-21T04:46:48;100485.19;;;11.52;64.68
72548;BME280;60570;50.848;6.776;2023-03-21T04:47:49;100482.75;;;11.51;64.33
72548;BME280;60570;50.848;6.776;2023-03-21T04:48:49;100483.56;;;11.51;64.54
72548;BME280;60570;50.848;6.776;2023-03-21T04:49:50;100487.16;;;11.52;64.39
72548;BME280;60570;50.848;6.776;2023-03-21T04:50:51;100485.53;;;11.51;64.58
72548;BME280;60570;50.848;6.776;2023-03-21T04:51:51;100486.00;;;11.53;64.28
72548;BME280;60570;50.848;6.776;2023-03-21T04:52:52;100480.78;;;11.51;64.47
72548;BME280;60570;50.848;6.776;2023-03-21T04:53:52;100485.53;;;11.51;64.73
72548;BME280;60570;50.848;6.776;2023-03-21T04:54:56;100482.75;;;11.51;64.47
72548;BME280;60570;50.848;6.776;2023-03-21T04:55:57;100481.94;;;11.50;64.54
72548;BME280;60570;50.848;6.776;2023-03-21T04:56:57;100481.94;;;11.50;64.59
72548;BME280;60570;50.848;6.776;2023-03-21T04:57:58;100471.97;;;11.49;64.45
72548;BME280;60570;50.848;6.776;2023-03-21T04:59:00;100477.19;;;11.51;64.50
72548;BME280;60570;50.848;6.776;2023-03-21T05:00:04;100479.16;;;11.50;64.74
72548;BME280;60570;50.848;6.776;2023-03-21T05:01:10;100481.94;;;11.50;64.47
72548;BME280;60570;50.848;6.776;2023-03-21T05:02:16;100479.97;;;11.51;64.55
72548;BME280;60570;50.848;6.776;2023-03-21T05:03:20;100481.59;;;11.52;64.77
72548;BME280;60570;50.848;6.776;2023-03-21T05:04:25;100484.72;;;11.50;64.50
72548;BME280;60570;50.848;6.776;2023-03-21T05:05:30;100481.94;;;11.50;64.52
72548;BME280;60570;50.848;6.776;2023-03-21T05:06:33;100489.47;;;11.50;64.73
72548;BME280;60570;50.848;6.776;2023-03-21T05:07:33;100475.56;;;11.50;64.38
72548;BME280;60570;50.848;6.776;2023-03-21T05:08:34;100479.50;;;11.49;64.60
72548;BME280;60570;50.848;6.776;2023-03-21T05:09:35;100485.06;;;11.49;64.76
72548;BME280;60570;50.848;6.776;2023-03-21T05:10:36;100481.44;;;11.48;64.86
72548;BME280;60570;50.848;6.776;2023-03-21T05:11:38;100481.44;;;11.48;64.42
72548;BME280;60570;50.848;6.776;2023-03-21T05:12:42;100479.50;;;11.49;64.82
72548;BME280;60570;50.848;6.776;2023-03-21T05:13:44;100481.44;;;11.48;64.63
72548;BME280;60570;50.848;6.776;2023-03-21T05:14:45;100479.50;;;11.49;64.61
72548;BME280;60570;50.848;6.776;2023-03-21T05:15:47;100471.16;;;11.49;64.86
72548;BME280;60570;50.848;6.776;2023-03-21T05:16:48;100482.63;;;11.47;64.61
72548;BME280;60570;50.848;6.776;2023-03-21T05:17:53;100474.28;;;11.47;64.60
72548;BME280;60570;50.848;6.776;2023-03-21T05:18:59;100469.84;;;11.46;64.46
72548;BME280;60570;50.848;6.776;2023-03-21T05:20:06;100472.31;;;11.48;64.50
72548;BME280;60570;50.848;6.776;2023-03-21T05:21:11;100482.28;;;11.49;64.65
72548;BME280;60570;50.848;6.776;2023-03-21T05:22:14;100485.88;;;11.49;64.58
72548;BME280;60570;50.848;6.776;2023-03-21T05:23:19;100475.88;;;11.48;64.84
72548;BME280;60570;50.848;6.776;2023-03-21T05:24:20;100486.22;;;11.48;64.51
72548;BME280;60570;50.848;6.776;2023-03-21T05:25:21;100484.59;;;11.47;64.50
72548;BME280;60570;50.848;6.776;2023-03-21T05:26:34;100481.81;;;11.47;64.58
72548;BME280;60570;50.848;6.776;2023-03-21T05:27:35;100481.81;;;11.47;64.75
72548;BME280;60570;50.848;6.776;2023-03-21T05:28:35;100480.66;;;11.48;64.61
72548;BME280;60570;50.848;6.776;2023-03-21T05:29:36;100481.44;;;11.48;64.87
72548;BME280;60570;50.848;6.776;2023-03-21T05:30:37;100482.63;;;11.47;64.55
72548;BME280;60570;50.848;6.776;2023-03-21T05:31:39;100482.63;;;11.47;64.87
72548;BME280;60570;50.848;6.776;2023-03-21T05:32:40;100479.03;;;11.47;64.52
72548;BME280;60570;50.848;6.776;2023-03-21T05:33:41;100478.19;;;11.46;64.73
72548;BME280;60570;50.848;6.776;2023-03-21T05:34:41;100482.97;;;11.46;64.86
72548;BME280;60570;50.848;6.776;2023-03-21T05:35:43;100480.97;;;11.46;64.75
72548;BME280;60570;50.848;6.776;2023-03-21T05:36:44;100481.31;;;11.45;64.91
72548;BME280;60570;50.848;6.776;2023-03-21T05:37:44;100482.16;;;11.45;64.93
72548;BME280;60570;50.848;6.776;2023-03-21T05:38:45;100485.75;;;11.46;64.85
72548;BME280;60570;50.848;6.776;2023-03-21T05:39:46;100486.91;;;11.45;64.68
72548;BME280;60570;50.848;6.776;2023-03-21T05:40:47;100486.06;;;11.44;64.98
72548;BME280;60570;50.848;6.776;2023-03-21T05:41:48;100478.53;;;11.45;64.93
72548;BME280;60570;50.848;6.776;2023-03-21T05:42:50;100485.75;;;11.46;64.76
72548;BME280;60570;50.848;6.776;2023-03-21T05:43:53;100477.41;;;11.46;64.65
72548;BME280;60570;50.848;6.776;2023-03-21T05:44:53;100484.94;;;11.45;64.70
72548;BME280;60570;50.848;6.776;2023-03-21T05:45:54;100476.59;;;11.45;65.06
72548;BME280;60570;50.848;6.776;2023-03-21T05:46:55;100480.50;;;11.44;64.84
72548;BME280;60570;50.848;6.776;2023-03-21T05:47:55;100473.81;;;11.45;64.83
72548;BME280;60570;50.848;6.776;2023-03-21T05:48:56;100486.91;;;11.45;64.79
72548;BME280;60570;50.848;6.776;2023-03-21T05:49:56;100475.75;;;11.45;64.66
72548;BME280;60570;50.848;6.776;2023-03-21T05:50:58;100470.56;;;11.43;64.80
72548;BME280;60570;50.848;6.776;2023-03-21T05:51:59;100485.28;;;11.44;65.06
72548;BME280;60570;50.848;6.776;2023-03-21T05:53:01;100479.72;;;11.44;64.78
72548;BME280;60570;50.848;6.776;2023-03-21T05:54:01;100487.25;;;11.43;64.94
72548;BME280;60570;50.848;6.776;2023-03-21T05:55:04;100492.81;;;11.43;64.79
72548;BME280;60570;50.848;6.776;2023-03-21T05:56:06;100486.91;;;11.45;64.78
72548;BME280;60570;50.848;6.776;2023-03-21T05:57:07;100490.84;;;11.44;64.80
72548;BME280;60570;50.848;6.776;2023-03-21T05:58:09;100488.84;;;11.44;65.24
72548;BME280;60570;50.848;6.776;2023-03-21T05:59:12;100488.84;;;11.44;65.13
72548;BME280;60570;50.848;6.776;2023-03-21T06:00:13;100491.19;;;11.42;65.22